sensor_id;sensor_type;location;lat;lon;timestamp;P1;durP1;ratioP1;P2;durP2;ratioP2
52186;SDS011;38161;53.020;6.598;2024-01-06T00:01:48;15.43;;;11.27;;
52186;SDS011;38161;53.020;6.598;2024-01-06T00:04:14;18.13;;;11.77;;
52186;SDS011;38161;53.020;6.598;2024-01-06T00:06:39;17.77;;;12.27;;
52186;SDS011;38161;53.020;6.598;2024-01-06T00:09:05;19.90;;;13.83;;
52186;SDS011;38161;53.020;6.598;2024-01-06T00:11:31;17.75;;;12.57;;
52186;SDS011;38161;53.020;6.598;2024-01-06T00:13:57;17.80;;;12.47;;
52186;SDS011;38161;53.020;6.598;2024-01-06T00:16:22;17.67;;;12.27;;
52186;SDS011;38161;53.020;6.598;2024-01-06T00:18:48;17.47;;;12.30;;
52186;SDS011;38161;53.020;6.598;2024-01-06T00:21:14;17.48;;;11.38;;
52186;SDS011;38161;53.020;6.598;2024-01-06T00:23:40;18.00;;;12.20;;
52186;SDS011;38161;53.020;6.598;2024-01-06T00:26:06;19.83;;;13.18;;
52186;SDS011;38161;53.020;6.598;2024-01-06T00:28:33;17.73;;;12.30;;
52186;SDS011;38161;53.020;6.598;2024-01-06T00:31:00;22.20;;;13.38;;
52186;SDS011;38161;53.020;6.598;2024-01-06T00:33:25;19.63;;;12.48;;
52186;SDS011;38161;53.020;6.598;2024-01-06T00:35:51;19.23;;;12.37;;
52186;SDS011;38161;53.020;6.598;2024-01-06T00:38:17;17.58;;;11.23;;
52186;SDS011;38161;53.020;6.598;2024-01-06T00:40:43;18.60;;;12.18;;
52186;SDS011;38161;53.020;6.598;2024-01-06T00:43:09;20.67;;;12.87;;
52186;SDS011;38161;53.020;6.598;2024-01-06T00:45:35;18.87;;;13.00;;
52186;SDS011;38161;53.020;6.598;2024-01-06T00:48:01;18.93;;;12.83;;
52186;SDS011;38161;53.020;6.598;2024-01-06T00:50:26;21.23;;;13.87;;
52186;SDS011;38161;53.020;6.598;2024-01-06T00:52:52;21.60;;;13.77;;
52186;SDS011;38161;53.020;6.598;2024-01-06T00:55:21;18.00;;;12.68;;
52186;SDS011;38161;53.020;6.598;2024-01-06T00:57:47;18.52;;;12.32;;
52186;SDS011;38161;53.020;6.598;2024-01-06T01:00:14;18.05;;;11.57;;
52186;SDS011;38161;53.020;6.598;2024-01-06T01:02:40;17.77;;;11.82;;
52186;SDS011;38161;53.020;6.598;2024-01-06T01:05:06;17.70;;;12.05;;
52186;SDS011;38161;53.020;6.598;2024-01-06T01:07:35;18.52;;;12.05;;
52186;SDS011;38161;53.020;6.598;2024-01-06T01:10:01;16.67;;;10.95;;
52186;SDS011;38161;53.020;6.598;2024-01-06T01:12:27;16.38;;;11.65;;
52186;SDS011;38161;53.020;6.598;2024-01-06T01:14:53;16.35;;;11.45;;
52186;SDS011;38161;53.020;6.598;2024-01-06T01:17:19;20.45;;;12.07;;
52186;SDS011;38161;53.020;6.598;2024-01-06T01:19:45;19.05;;;12.18;;
52186;SDS011;38161;53.020;6.598;2024-01-06T01:22:11;19.02;;;12.40;;
52186;SDS011;38161;53.020;6.598;2024-01-06T01:24:37;17.70;;;12.00;;
52186;SDS011;38161;53.020;6.598;2024-01-06T01:27:03;19.08;;;13.18;;
52186;SDS011;38161;53.020;6.598;2024-01-06T01:29:29;18.75;;;13.10;;
52186;SDS011;38161;53.020;6.598;2024-01-06T01:31:55;18.57;;;11.37;;
52186;SDS011;38161;53.020;6.598;2024-01-06T01:34:20;18.13;;;12.10;;
52186;SDS011;38161;53.020;6.598;2024-01-06T01:36:46;19.50;;;11.45;;
52186;SDS011;38161;53.020;6.598;2024-01-06T01:39:12;17.85;;;11.25;;
52186;SDS011;38161;53.020;6.598;2024-01-06T01:41:39;16.73;;;11.63;;
52186;SDS011;38161;53.020;6.598;2024-01-06T01:44:05;16.52;;;10.93;;
52186;SDS011;38161;53.020;6.598;2024-01-06T01:46:31;16.73;;;11.13;;
52186;SDS011;38161;53.020;6.598;2024-01-06T01:48:57;16.05;;;11.10;;
52186;SDS011;38161;53.020;6.598;2024-01-06T01:51:27;15.50;;;10.45;;
52186;SDS011;38161;53.020;6.598;2024-01-06T01:53:54;17.10;;;11.95;;
52186;SDS011;38161;53.020;6.598;2024-01-06T01:56:22;17.65;;;11.35;;
52186;SDS011;38161;53.020;6.598;2024-01-06T01:58:49;16.83;;;11.23;;
52186;SDS011;38161;53.020;6.598;2024-01-06T02:01:15;15.90;;;11.38;;
52186;SDS011;38161;53.020;6.598;2024-01-06T02:03:42;16.13;;;10.32;;
52186;SDS011;38161;53.020;6.598;2024-01-06T02:06:11;15.35;;;10.30;;
52186;SDS011;38161;53.020;6.598;2024-01-06T02:08:37;16.02;;;10.20;;
52186;SDS011;38161;53.020;6.598;2024-01-06T02:11:03;16.63;;;10.43;;
52186;SDS011;38161;53.020;6.598;2024-01-06T02:13:36;14.93;;;9.52;;
52186;SDS011;38161;53.020;6.598;2024-01-06T02:16:03;15.80;;;9.88;;
52186;SDS011;38161;53.020;6.598;2024-01-06T02:18:30;14.68;;;9.68;;
52186;SDS011;38161;53.020;6.598;2024-01-06T02:20:57;15.15;;;10.05;;
52186;SDS011;38161;53.020;6.598;2024-01-06T02:23:24;16.45;;;10.13;;
52186;SDS011;38161;53.020;6.598;2024-01-06T02:25:50;14.25;;;9.85;;
52186;SDS011;38161;53.020;6.598;2024-01-06T02:28:16;16.77;;;10.03;;
52186;SDS011;38161;53.020;6.598;2024-01-06T02:30:42;15.60;;;10.00;;
52186;SDS011;38161;53.020;6.598;2024-01-06T02:33:08;16.02;;;9.90;;
52186;SDS011;38161;53.020;6.598;2024-01-06T02:35:34;19.23;;;10.95;;
52186;SDS011;38161;53.020;6.598;2024-01-06T02:38:00;15.77;;;10.38;;
52186;SDS011;38161;53.020;6.598;2024-01-06T02:40:26;16.77;;;10.65;;
52186;SDS011;38161;53.020;6.598;2024-01-06T02:42:52;17.27;;;11.97;;
52186;SDS011;38161;53.020;6.598;2024-01-06T02:45:18;22.17;;;11.90;;
52186;SDS011;38161;53.020;6.598;2024-01-06T02:47:44;19.05;;;12.20;;
52186;SDS011;38161;53.020;6.598;2024-01-06T02:50:09;18.73;;;11.87;;
52186;SDS011;38161;53.020;6.598;2024-01-06T02:52:35;18.27;;;11.52;;
52186;SDS011;38161;53.020;6.598;2024-01-06T02:55:01;17.17;;;12.07;;
52186;SDS011;38161;53.020;6.598;2024-01-06T02:57:27;18.90;;;11.77;;
52186;SDS011;38161;53.020;6.598;2024-01-06T02:59:54;21.60;;;12.15;;
52186;SDS011;38161;53.020;6.598;2024-01-06T03:02:20;18.02;;;12.20;;
52186;SDS011;38161;53.020;6.598;2024-01-06T03:04:46;20.02;;;12.82;;
52186;SDS011;38161;53.020;6.598;2024-01-06T03:07:12;20.00;;;13.03;;
52186;SDS011;38161;53.020;6.598;2024-01-06T03:09:37;20.70;;;13.27;;
52186;SDS011;38161;53.020;6.598;2024-01-06T03:12:06;22.58;;;13.48;;
52186;SDS011;38161;53.020;6.598;2024-01-06T03:14:35;19.35;;;13.07;;
52186;SDS011;38161;53.020;6.598;2024-01-06T03:17:01;23.38;;;14.07;;
52186;SDS011;38161;53.020;6.598;2024-01-06T03:19:28;19.92;;;12.68;;
52186;SDS011;38161;53.020;6.598;2024-01-06T03:21:54;22.15;;;13.90;;
52186;SDS011;38161;53.020;6.598;2024-01-06T03:24:23;23.65;;;14.13;;
52186;SDS011;38161;53.020;6.598;2024-01-06T03:26:49;21.02;;;12.52;;
52186;SDS011;38161;53.020;6.598;2024-01-06T03:29:15;19.07;;;12.23;;
52186;SDS011;38161;53.020;6.598;2024-01-06T03:31:42;23.40;;;13.20;;
52186;SDS011;38161;53.020;6.598;2024-01-06T03:34:11;21.93;;;12.60;;
52186;SDS011;38161;53.020;6.598;2024-01-06T03:36:40;21.48;;;12.85;;
52186;SDS011;38161;53.020;6.598;2024-01-06T03:39:06;21.77;;;12.90;;
52186;SDS011;38161;53.020;6.598;2024-01-06T03:41:32;28.30;;;14.82;;
52186;SDS011;38161;53.020;6.598;2024-01-06T03:43:58;26.40;;;13.80;;
52186;SDS011;38161;53.020;6.598;2024-01-06T03:46:24;24.15;;;14.27;;
52186;SDS011;38161;53.020;6.598;2024-01-06T03:48:50;24.15;;;13.73;;
52186;SDS011;38161;53.020;6.598;2024-01-06T03:51:19;22.50;;;13.40;;
52186;SDS011;38161;53.020;6.598;2024-01-06T03:53:46;22.33;;;12.85;;
52186;SDS011;38161;53.020;6.598;2024-01-06T03:56:12;19.85;;;11.90;;
52186;SDS011;38161;53.020;6.598;2024-01-06T03:58:38;18.10;;;11.35;;
52186;SDS011;38161;53.020;6.598;2024-01-06T04:01:04;19.77;;;12.03;;
52186;SDS011;38161;53.020;6.598;2024-01-06T04:03:33;19.77;;;11.60;;
52186;SDS011;38161;53.020;6.598;2024-01-06T04:05:58;18.02;;;10.57;;
52186;SDS011;38161;53.020;6.598;2024-01-06T04:08:24;19.85;;;12.07;;
52186;SDS011;38161;53.020;6.598;2024-01-06T04:10:50;16.93;;;10.77;;
52186;SDS011;38161;53.020;6.598;2024-01-06T04:13:16;19.47;;;11.13;;
52186;SDS011;38161;53.020;6.598;2024-01-06T04:15:42;19.20;;;10.57;;
52186;SDS011;38161;53.020;6.598;2024-01-06T04:18:07;18.33;;;10.60;;
52186;SDS011;38161;53.020;6.598;2024-01-06T04:20:34;15.20;;;9.93;;
52186;SDS011;38161;53.020;6.598;2024-01-06T04:23:00;17.27;;;10.60;;
52186;SDS011;38161;53.020;6.598;2024-01-06T04:25:26;15.73;;;9.83;;
52186;SDS011;38161;53.020;6.598;2024-01-06T04:27:52;18.52;;;10.38;;
52186;SDS011;38161;53.020;6.598;2024-01-06T04:30:17;17.83;;;10.37;;
52186;SDS011;38161;53.020;6.598;2024-01-06T04:32:44;17.40;;;10.93;;
52186;SDS011;38161;53.020;6.598;2024-01-06T04:35:10;17.77;;;11.27;;
52186;SDS011;38161;53.020;6.598;2024-01-06T04:37:36;19.40;;;11.18;;
52186;SDS011;38161;53.020;6.598;2024-01-06T04:40:02;19.90;;;11.82;;
52186;SDS011;38161;53.020;6.598;2024-01-06T04:42:29;19.93;;;11.07;;
52186;SDS011;38161;53.020;6.598;2024-01-06T04:44:55;15.97;;;10.07;;
52186;SDS011;38161;53.020;6.598;2024-01-06T04:47:30;22.33;;;11.97;;
52186;SDS011;38161;53.020;6.598;2024-01-06T04:49:56;22.50;;;11.37;;
52186;SDS011;38161;53.020;6.598;2024-01-06T04:52:22;17.20;;;10.50;;
52186;SDS011;38161;53.020;6.598;2024-01-06T04:54:48;19.65;;;10.70;;
52186;SDS011;38161;53.020;6.598;2024-01-06T04:57:14;17.47;;;10.53;;
52186;SDS011;38161;53.020;6.598;2024-01-06T04:59:40;16.13;;;10.43;;
52186;SDS011;38161;53.020;6.598;2024-01-06T05:02:07;15.10;;;10.20;;
52186;SDS011;38161;53.020;6.598;2024-01-06T05:04:33;16.48;;;9.80;;
52186;SDS011;38161;53.020;6.598;2024-01-06T05:06:58;15.17;;;10.00;;
52186;SDS011;38161;53.020;6.598;2024-01-06T05:09:27;16.88;;;10.27;;
52186;SDS011;38161;53.020;6.598;2024-01-06T05:11:53;18.60;;;10.80;;
52186;SDS011;38161;53.020;6.598;2024-01-06T05:14:19;18.23;;;10.80;;
52186;SDS011;38161;53.020;6.598;2024-01-06T05:16:45;19.23;;;11.45;;
52186;SDS011;38161;53.020;6.598;2024-01-06T05:19:11;15.82;;;10.02;;
52186;SDS011;38161;53.020;6.598;2024-01-06T05:21:36;17.27;;;10.18;;
52186;SDS011;38161;53.020;6.598;2024-01-06T05:24:02;15.68;;;10.00;;
52186;SDS011;38161;53.020;6.598;2024-01-06T05:26:30;15.73;;;9.90;;
52186;SDS011;38161;53.020;6.598;2024-01-06T05:28:55;16.37;;;10.00;;
52186;SDS011;38161;53.020;6.598;2024-01-06T05:31:22;19.92;;;11.25;;
52186;SDS011;38161;53.020;6.598;2024-01-06T05:33:47;15.93;;;10.20;;
52186;SDS011;38161;53.020;6.598;2024-01-06T05:36:13;19.63;;;10.35;;
52186;SDS011;38161;53.020;6.598;2024-01-06T05:38:43;17.53;;;10.50;;
52186;SDS011;38161;53.020;6.598;2024-01-06T05:41:09;15.63;;;10.27;;
52186;SDS011;38161;53.020;6.598;2024-01-06T05:43:34;16.93;;;9.67;;
52186;SDS011;38161;53.020;6.598;2024-01-06T05:46:00;15.43;;;10.18;;
52186;SDS011;38161;53.020;6.598;2024-01-06T05:48:26;14.80;;;9.93;;
52186;SDS011;38161;53.020;6.598;2024-01-06T05:50:52;14.20;;;9.53;;
52186;SDS011;38161;53.020;6.598;2024-01-06T05:53:17;17.80;;;10.03;;
52186;SDS011;38161;53.020;6.598;2024-01-06T05:55:44;17.45;;;10.63;;
52186;SDS011;38161;53.020;6.598;2024-01-06T05:58:09;14.68;;;9.35;;
52186;SDS011;38161;53.020;6.598;2024-01-06T06:00:35;16.98;;;9.88;;
52186;SDS011;38161;53.020;6.598;2024-01-06T06:03:01;17.73;;;10.00;;
52186;SDS011;38161;53.020;6.598;2024-01-06T06:05:27;15.73;;;9.75;;
52186;SDS011;38161;53.020;6.598;2024-01-06T06:07:53;15.55;;;9.98;;
52186;SDS011;38161;53.020;6.598;2024-01-06T06:10:19;16.55;;;10.10;;
52186;SDS011;38161;53.020;6.598;2024-01-06T06:12:45;15.68;;;10.90;;
52186;SDS011;38161;53.020;6.598;2024-01-06T06:15:11;15.90;;;10.60;;
52186;SDS011;38161;53.020;6.598;2024-01-06T06:17:37;15.97;;;10.87;;
52186;SDS011;38161;53.020;6.598;2024-01-06T06:20:04;15.83;;;11.07;;
52186;SDS011;38161;53.020;6.598;2024-01-06T06:22:31;20.90;;;12.43;;
52186;SDS011;38161;53.020;6.598;2024-01-06T06:24:58;19.73;;;11.50;;
52186;SDS011;38161;53.020;6.598;2024-01-06T06:27:24;17.47;;;11.43;;
52186;SDS011;38161;53.020;6.598;2024-01-06T06:29:51;16.83;;;10.73;;
52186;SDS011;38161;53.020;6.598;2024-01-06T06:32:17;20.35;;;11.88;;
52186;SDS011;38161;53.020;6.598;2024-01-06T06:34:46;15.37;;;10.63;;
52186;SDS011;38161;53.020;6.598;2024-01-06T06:37:12;17.58;;;11.00;;
52186;SDS011;38161;53.020;6.598;2024-01-06T06:39:38;18.17;;;10.90;;
52186;SDS011;38161;53.020;6.598;2024-01-06T06:42:04;16.60;;;10.18;;
52186;SDS011;38161;53.020;6.598;2024-01-06T06:44:30;17.08;;;10.65;;
52186;SDS011;38161;53.020;6.598;2024-01-06T06:46:55;14.95;;;9.98;;
52186;SDS011;38161;53.020;6.598;2024-01-06T06:49:21;14.27;;;9.77;;
52186;SDS011;38161;53.020;6.598;2024-01-06T06:51:47;14.90;;;9.70;;
52186;SDS011;38161;53.020;6.598;2024-01-06T06:54:13;15.35;;;9.70;;
52186;SDS011;38161;53.020;6.598;2024-01-06T06:56:41;13.67;;;9.90;;
52186;SDS011;38161;53.020;6.598;2024-01-06T06:59:07;17.77;;;9.88;;
52186;SDS011;38161;53.020;6.598;2024-01-06T07:01:33;15.80;;;9.73;;
52186;SDS011;38161;53.020;6.598;2024-01-06T07:03:59;15.02;;;9.00;;
52186;SDS011;38161;53.020;6.598;2024-01-06T07:06:25;17.07;;;10.43;;
52186;SDS011;38161;53.020;6.598;2024-01-06T07:08:50;13.38;;;9.07;;
52186;SDS011;38161;53.020;6.598;2024-01-06T07:11:16;14.63;;;9.73;;
52186;SDS011;38161;53.020;6.598;2024-01-06T07:13:44;15.73;;;9.87;;
52186;SDS011;38161;53.020;6.598;2024-01-06T07:16:10;15.00;;;9.55;;
52186;SDS011;38161;53.020;6.598;2024-01-06T07:18:37;13.82;;;9.55;;
52186;SDS011;38161;53.020;6.598;2024-01-06T07:21:05;15.13;;;9.95;;
52186;SDS011;38161;53.020;6.598;2024-01-06T07:23:31;15.67;;;10.23;;
52186;SDS011;38161;53.020;6.598;2024-01-06T07:25:57;15.98;;;10.50;;
52186;SDS011;38161;53.020;6.598;2024-01-06T07:28:23;15.57;;;10.25;;
52186;SDS011;38161;53.020;6.598;2024-01-06T07:30:49;16.73;;;10.90;;
52186;SDS011;38161;53.020;6.598;2024-01-06T07:33:15;17.25;;;10.18;;
52186;SDS011;38161;53.020;6.598;2024-01-06T07:35:41;17.33;;;10.40;;
52186;SDS011;38161;53.020;6.598;2024-01-06T07:38:11;14.13;;;9.73;;
52186;SDS011;38161;53.020;6.598;2024-01-06T07:40:37;15.40;;;10.67;;
52186;SDS011;38161;53.020;6.598;2024-01-06T07:43:03;17.05;;;10.93;;
52186;SDS011;38161;53.020;6.598;2024-01-06T07:45:30;17.10;;;10.45;;
52186;SDS011;38161;53.020;6.598;2024-01-06T07:47:59;17.35;;;11.05;;
52186;SDS011;38161;53.020;6.598;2024-01-06T07:50:26;16.80;;;10.27;;
52186;SDS011;38161;53.020;6.598;2024-01-06T07:52:53;15.73;;;9.57;;
52186;SDS011;38161;53.020;6.598;2024-01-06T07:55:19;18.17;;;10.55;;
52186;SDS011;38161;53.020;6.598;2024-01-06T07:57:45;16.13;;;10.55;;
52186;SDS011;38161;53.020;6.598;2024-01-06T08:00:11;16.33;;;10.40;;
52186;SDS011;38161;53.020;6.598;2024-01-06T08:02:43;17.07;;;11.80;;
52186;SDS011;38161;53.020;6.598;2024-01-06T08:05:09;15.60;;;10.07;;
52186;SDS011;38161;53.020;6.598;2024-01-06T08:07:34;15.67;;;10.23;;
52186;SDS011;38161;53.020;6.598;2024-01-06T08:10:00;17.52;;;11.15;;
52186;SDS011;38161;53.020;6.598;2024-01-06T08:12:30;16.98;;;10.95;;
52186;SDS011;38161;53.020;6.598;2024-01-06T08:14:58;16.60;;;11.37;;
52186;SDS011;38161;53.020;6.598;2024-01-06T08:17:24;18.00;;;11.07;;
52186;SDS011;38161;53.020;6.598;2024-01-06T08:19:50;16.30;;;10.57;;
52186;SDS011;38161;53.020;6.598;2024-01-06T08:22:15;15.73;;;10.40;;
52186;SDS011;38161;53.020;6.598;2024-01-06T08:24:41;18.63;;;11.03;;
52186;SDS011;38161;53.020;6.598;2024-01-06T08:27:07;16.13;;;10.77;;
52186;SDS011;38161;53.020;6.598;2024-01-06T08:29:33;16.43;;;10.33;;
52186;SDS011;38161;53.020;6.598;2024-01-06T08:31:59;16.50;;;10.90;;
52186;SDS011;38161;53.020;6.598;2024-01-06T08:34:25;17.87;;;10.77;;
52186;SDS011;38161;53.020;6.598;2024-01-06T08:36:51;15.33;;;10.67;;
52186;SDS011;38161;53.020;6.598;2024-01-06T08:39:16;17.60;;;10.93;;
52186;SDS011;38161;53.020;6.598;2024-01-06T08:41:42;17.27;;;10.25;;
52186;SDS011;38161;53.020;6.598;2024-01-06T08:44:08;16.70;;;9.68;;
52186;SDS011;38161;53.020;6.598;2024-01-06T08:46:34;14.37;;;10.33;;
52186;SDS011;38161;53.020;6.598;2024-01-06T08:49:00;15.47;;;10.47;;
52186;SDS011;38161;53.020;6.598;2024-01-06T08:51:25;16.63;;;10.13;;
52186;SDS011;38161;53.020;6.598;2024-01-06T08:53:51;17.42;;;10.65;;
52186;SDS011;38161;53.020;6.598;2024-01-06T08:56:18;16.48;;;10.20;;
52186;SDS011;38161;53.020;6.598;2024-01-06T08:58:44;15.25;;;10.52;;
52186;SDS011;38161;53.020;6.598;2024-01-06T09:01:10;16.80;;;10.40;;
52186;SDS011;38161;53.020;6.598;2024-01-06T09:03:36;16.80;;;10.70;;
52186;SDS011;38161;53.020;6.598;2024-01-06T09:06:01;19.80;;;11.43;;
52186;SDS011;38161;53.020;6.598;2024-01-06T09:08:28;16.15;;;10.30;;
52186;SDS011;38161;53.020;6.598;2024-01-06T09:10:54;17.27;;;10.70;;
52186;SDS011;38161;53.020;6.598;2024-01-06T09:13:23;16.60;;;11.03;;
52186;SDS011;38161;53.020;6.598;2024-01-06T09:15:50;15.65;;;10.57;;
52186;SDS011;38161;53.020;6.598;2024-01-06T09:18:16;16.02;;;10.35;;
52186;SDS011;38161;53.020;6.598;2024-01-06T09:20:42;18.52;;;10.75;;
52186;SDS011;38161;53.020;6.598;2024-01-06T09:23:07;15.00;;;10.10;;
52186;SDS011;38161;53.020;6.598;2024-01-06T09:25:35;17.20;;;10.13;;
52186;SDS011;38161;53.020;6.598;2024-01-06T09:28:01;17.98;;;10.88;;
52186;SDS011;38161;53.020;6.598;2024-01-06T09:30:26;15.33;;;10.20;;
52186;SDS011;38161;53.020;6.598;2024-01-06T09:32:52;16.50;;;9.93;;
52186;SDS011;38161;53.020;6.598;2024-01-06T09:35:18;17.53;;;11.27;;
52186;SDS011;38161;53.020;6.598;2024-01-06T09:37:44;17.43;;;11.63;;
52186;SDS011;38161;53.020;6.598;2024-01-06T09:40:14;15.47;;;11.13;;
52186;SDS011;38161;53.020;6.598;2024-01-06T09:42:47;17.03;;;11.33;;
52186;SDS011;38161;53.020;6.598;2024-01-06T09:45:13;16.55;;;10.73;;
52186;SDS011;38161;53.020;6.598;2024-01-06T09:47:40;18.58;;;12.05;;
52186;SDS011;38161;53.020;6.598;2024-01-06T09:50:06;19.53;;;11.57;;
52186;SDS011;38161;53.020;6.598;2024-01-06T09:52:40;19.57;;;12.70;;
52186;SDS011;38161;53.020;6.598;2024-01-06T09:55:08;16.60;;;11.53;;
52186;SDS011;38161;53.020;6.598;2024-01-06T09:57:36;19.90;;;12.83;;
52186;SDS011;38161;53.020;6.598;2024-01-06T10:02:29;18.27;;;11.17;;
52186;SDS011;38161;53.020;6.598;2024-01-06T10:04:58;19.20;;;12.03;;
52186;SDS011;38161;53.020;6.598;2024-01-06T10:07:27;17.60;;;11.10;;
52186;SDS011;38161;53.020;6.598;2024-01-06T10:09:56;20.47;;;11.53;;
52186;SDS011;38161;53.020;6.598;2024-01-06T10:12:23;17.50;;;11.13;;
52186;SDS011;38161;53.020;6.598;2024-01-06T10:14:50;18.13;;;11.73;;
52186;SDS011;38161;53.020;6.598;2024-01-06T10:17:16;18.52;;;12.45;;
52186;SDS011;38161;53.020;6.598;2024-01-06T10:19:44;20.58;;;12.95;;
52186;SDS011;38161;53.020;6.598;2024-01-06T10:22:11;18.73;;;11.77;;
52186;SDS011;38161;53.020;6.598;2024-01-06T10:24:37;18.35;;;11.68;;
52186;SDS011;38161;53.020;6.598;2024-01-06T10:27:03;19.17;;;12.35;;
52186;SDS011;38161;53.020;6.598;2024-01-06T10:31:55;17.07;;;11.00;;
52186;SDS011;38161;53.020;6.598;2024-01-06T10:34:24;18.17;;;11.70;;
52186;SDS011;38161;53.020;6.598;2024-01-06T10:36:50;20.80;;;12.27;;
52186;SDS011;38161;53.020;6.598;2024-01-06T10:39:19;21.27;;;13.00;;
52186;SDS011;38161;53.020;6.598;2024-01-06T10:41:46;20.17;;;13.10;;
52186;SDS011;38161;53.020;6.598;2024-01-06T10:44:14;20.77;;;12.60;;
52186;SDS011;38161;53.020;6.598;2024-01-06T10:46:40;19.80;;;12.90;;
52186;SDS011;38161;53.020;6.598;2024-01-06T10:49:07;17.67;;;11.40;;
52186;SDS011;38161;53.020;6.598;2024-01-06T10:51:37;21.13;;;12.83;;
52186;SDS011;38161;53.020;6.598;2024-01-06T10:54:06;18.20;;;11.02;;
52186;SDS011;38161;53.020;6.598;2024-01-06T10:56:37;18.33;;;12.30;;
52186;SDS011;38161;53.020;6.598;2024-01-06T10:59:04;19.27;;;12.13;;
52186;SDS011;38161;53.020;6.598;2024-01-06T11:01:33;18.50;;;12.05;;
52186;SDS011;38161;53.020;6.598;2024-01-06T11:03:59;16.73;;;11.13;;
52186;SDS011;38161;53.020;6.598;2024-01-06T11:06:28;16.80;;;11.20;;
52186;SDS011;38161;53.020;6.598;2024-01-06T11:11:29;18.33;;;11.70;;
52186;SDS011;38161;53.020;6.598;2024-01-06T11:16:51;20.10;;;12.07;;
52186;SDS011;38161;53.020;6.598;2024-01-06T11:22:27;16.88;;;10.35;;
52186;SDS011;38161;53.020;6.598;2024-01-06T11:24:54;15.53;;;9.93;;
52186;SDS011;38161;53.020;6.598;2024-01-06T11:27:25;15.20;;;9.40;;
52186;SDS011;38161;53.020;6.598;2024-01-06T11:29:57;15.67;;;9.53;;
52186;SDS011;38161;53.020;6.598;2024-01-06T11:32:32;16.37;;;10.17;;
52186;SDS011;38161;53.020;6.598;2024-01-06T11:42:57;17.03;;;11.67;;
52186;SDS011;38161;53.020;6.598;2024-01-06T11:47:54;16.90;;;9.93;;
52186;SDS011;38161;53.020;6.598;2024-01-06T11:50:23;18.07;;;11.10;;
52186;SDS011;38161;53.020;6.598;2024-01-06T11:52:50;18.75;;;11.63;;
52186;SDS011;38161;53.020;6.598;2024-01-06T11:55:19;18.45;;;11.57;;
52186;SDS011;38161;53.020;6.598;2024-01-06T11:57:45;17.53;;;11.03;;
52186;SDS011;38161;53.020;6.598;2024-01-06T12:00:12;16.23;;;10.70;;
52186;SDS011;38161;53.020;6.598;2024-01-06T12:02:41;16.03;;;11.00;;
52186;SDS011;38161;53.020;6.598;2024-01-06T12:05:16;17.48;;;11.60;;
52186;SDS011;38161;53.020;6.598;2024-01-06T12:07:43;15.77;;;10.90;;
52186;SDS011;38161;53.020;6.598;2024-01-06T12:10:19;16.57;;;10.53;;
52186;SDS011;38161;53.020;6.598;2024-01-06T12:15:21;17.03;;;10.33;;
52186;SDS011;38161;53.020;6.598;2024-01-06T12:17:47;17.47;;;11.27;;
52186;SDS011;38161;53.020;6.598;2024-01-06T12:20:13;17.17;;;10.02;;
52186;SDS011;38161;53.020;6.598;2024-01-06T12:22:39;16.38;;;10.93;;
52186;SDS011;38161;53.020;6.598;2024-01-06T12:25:05;16.00;;;10.70;;
52186;SDS011;38161;53.020;6.598;2024-01-06T12:27:32;17.20;;;11.45;;
52186;SDS011;38161;53.020;6.598;2024-01-06T12:29:58;16.98;;;10.30;;
52186;SDS011;38161;53.020;6.598;2024-01-06T12:32:23;18.00;;;10.47;;
52186;SDS011;38161;53.020;6.598;2024-01-06T12:34:50;18.25;;;10.70;;
52186;SDS011;38161;53.020;6.598;2024-01-06T12:37:16;15.07;;;10.15;;
52186;SDS011;38161;53.020;6.598;2024-01-06T12:39:43;16.90;;;11.02;;
52186;SDS011;38161;53.020;6.598;2024-01-06T12:42:10;14.70;;;9.37;;
52186;SDS011;38161;53.020;6.598;2024-01-06T12:44:40;16.53;;;10.47;;
52186;SDS011;38161;53.020;6.598;2024-01-06T12:47:07;16.10;;;10.20;;
52186;SDS011;38161;53.020;6.598;2024-01-06T12:49:33;14.73;;;9.63;;
52186;SDS011;38161;53.020;6.598;2024-01-06T12:52:00;14.87;;;9.73;;
52186;SDS011;38161;53.020;6.598;2024-01-06T12:54:26;15.95;;;10.23;;
52186;SDS011;38161;53.020;6.598;2024-01-06T12:56:52;17.07;;;10.83;;
52186;SDS011;38161;53.020;6.598;2024-01-06T12:59:18;16.40;;;10.40;;
52186;SDS011;38161;53.020;6.598;2024-01-06T13:01:44;15.98;;;9.75;;
52186;SDS011;38161;53.020;6.598;2024-01-06T13:04:09;15.17;;;9.37;;
52186;SDS011;38161;53.020;6.598;2024-01-06T13:06:35;17.13;;;10.30;;
52186;SDS011;38161;53.020;6.598;2024-01-06T13:09:01;14.90;;;9.52;;
52186;SDS011;38161;53.020;6.598;2024-01-06T13:11:32;15.90;;;9.93;;
52186;SDS011;38161;53.020;6.598;2024-01-06T13:14:00;13.90;;;9.43;;
52186;SDS011;38161;53.020;6.598;2024-01-06T13:16:27;15.50;;;10.18;;
52186;SDS011;38161;53.020;6.598;2024-01-06T13:18:52;16.50;;;10.67;;
52186;SDS011;38161;53.020;6.598;2024-01-06T13:21:18;17.07;;;10.50;;
52186;SDS011;38161;53.020;6.598;2024-01-06T13:23:44;14.80;;;10.37;;
52186;SDS011;38161;53.020;6.598;2024-01-06T13:26:10;16.00;;;9.32;;
52186;SDS011;38161;53.020;6.598;2024-01-06T13:28:35;14.57;;;9.75;;
52186;SDS011;38161;53.020;6.598;2024-01-06T13:31:01;14.20;;;9.52;;
52186;SDS011;38161;53.020;6.598;2024-01-06T13:33:27;15.80;;;9.57;;
52186;SDS011;38161;53.020;6.598;2024-01-06T13:38:19;15.93;;;9.50;;
52186;SDS011;38161;53.020;6.598;2024-01-06T13:40:47;16.60;;;9.93;;
52186;SDS011;38161;53.020;6.598;2024-01-06T13:43:13;14.00;;;9.80;;
52186;SDS011;38161;53.020;6.598;2024-01-06T13:45:41;15.50;;;9.70;;
52186;SDS011;38161;53.020;6.598;2024-01-06T13:48:08;14.32;;;9.52;;
52186;SDS011;38161;53.020;6.598;2024-01-06T13:50:34;17.42;;;9.73;;
52186;SDS011;38161;53.020;6.598;2024-01-06T13:53:00;15.30;;;9.57;;
52186;SDS011;38161;53.020;6.598;2024-01-06T13:55:28;17.03;;;10.67;;
52186;SDS011;38161;53.020;6.598;2024-01-06T13:57:54;16.23;;;9.63;;
52186;SDS011;38161;53.020;6.598;2024-01-06T14:00:20;16.20;;;10.20;;
52186;SDS011;38161;53.020;6.598;2024-01-06T14:02:45;14.10;;;9.40;;
52186;SDS011;38161;53.020;6.598;2024-01-06T14:05:14;14.10;;;8.83;;
52186;SDS011;38161;53.020;6.598;2024-01-06T14:07:43;15.63;;;10.10;;
52186;SDS011;38161;53.020;6.598;2024-01-06T14:10:14;14.70;;;9.10;;
52186;SDS011;38161;53.020;6.598;2024-01-06T14:12:40;14.35;;;9.07;;
52186;SDS011;38161;53.020;6.598;2024-01-06T14:15:07;14.27;;;9.48;;
52186;SDS011;38161;53.020;6.598;2024-01-06T14:17:33;15.38;;;9.43;;
52186;SDS011;38161;53.020;6.598;2024-01-06T14:19:59;15.45;;;9.77;;
52186;SDS011;38161;53.020;6.598;2024-01-06T14:22:25;15.82;;;10.07;;
52186;SDS011;38161;53.020;6.598;2024-01-06T14:24:51;15.88;;;9.80;;
52186;SDS011;38161;53.020;6.598;2024-01-06T14:27:17;14.00;;;9.07;;
52186;SDS011;38161;53.020;6.598;2024-01-06T14:29:43;15.15;;;9.95;;
52186;SDS011;38161;53.020;6.598;2024-01-06T14:32:12;13.90;;;8.83;;
52186;SDS011;38161;53.020;6.598;2024-01-06T14:34:38;14.70;;;9.77;;
52186;SDS011;38161;53.020;6.598;2024-01-06T14:37:04;14.02;;;9.43;;
52186;SDS011;38161;53.020;6.598;2024-01-06T14:39:30;14.07;;;9.38;;
52186;SDS011;38161;53.020;6.598;2024-01-06T14:41:56;12.60;;;8.60;;
52186;SDS011;38161;53.020;6.598;2024-01-06T14:44:22;14.17;;;9.30;;
52186;SDS011;38161;53.020;6.598;2024-01-06T14:46:49;14.20;;;9.07;;
52186;SDS011;38161;53.020;6.598;2024-01-06T14:49:16;15.27;;;10.02;;